createdAt,value
2022-08-22T00:02:15.133Z,21.13
2022-08-22T00:02:46.875Z,22.41
2022-08-22T00:02:52.899Z,23.80
2022-08-22T00:02:53.827Z,23.02
2022-08-22T00:02:59.714Z,24.35
2022-08-22T00:03:10.011Z,23.96
2022-08-22T00:03:11.562Z,21.61
2022-08-22T00:04:54.184Z,21.11
2022-08-22T00:07:32.334Z,21.08
2022-08-22T00:10:02.697Z,21.06
2022-08-22T00:12:34.856Z,21.02
2022-08-22T00:15:05.000Z,21.00
2022-08-22T00:17:37.871Z,20.96
2022-08-22T00:20:11.226Z,20.93
2022-08-22T00:22:44.589Z,20.90
2022-08-22T00:25:26.189Z,20.87
2022-08-22T00:27:59.803Z,20.84
2022-08-22T00:30:30.434Z,20.81
2022-08-22T00:33:00.910Z,20.78
2022-08-22T00:35:39.551Z,20.76
2022-08-22T00:38:13.529Z,20.73
2022-08-22T00:40:53.611Z,20.71
2022-08-22T00:43:40.401Z,20.70
2022-08-22T00:46:19.520Z,20.69
2022-08-22T00:48:59.511Z,20.68
2022-08-22T00:51:51.323Z,20.67
2022-08-22T00:54:30.089Z,20.65
2022-08-22T00:57:16.886Z,20.62
2022-08-22T00:59:56.847Z,20.62
2022-08-22T01:02:32.416Z,20.61
2022-08-22T01:05:15.748Z,20.58
2022-08-22T01:07:56.133Z,20.56
2022-08-22T01:10:48.454Z,20.54
2022-08-22T01:13:25.656Z,20.52
2022-08-22T01:16:06.466Z,20.51
2022-08-22T01:18:50.397Z,20.48
2022-08-22T01:21:49.092Z,20.45
2022-08-22T01:24:35.881Z,20.42
2022-08-22T01:27:18.953Z,20.38
2022-08-22T01:30:09.877Z,20.36
2022-08-22T01:32:57.016Z,20.33
2022-08-22T01:35:38.558Z,20.29
2022-08-22T01:38:22.578Z,20.27
2022-08-22T01:41:00.715Z,20.23
2022-08-22T01:43:51.330Z,20.19
2022-08-22T01:46:31.318Z,20.15
2022-08-22T01:49:05.041Z,20.12
2022-08-22T01:51:39.601Z,20.09
2022-08-22T01:54:11.173Z,20.06
2022-08-22T01:56:41.645Z,20.03
2022-08-22T01:59:11.899Z,20.00
2022-08-22T02:01:53.776Z,19.95
2022-08-22T02:04:30.858Z,19.93
2022-08-22T02:07:03.971Z,19.90
2022-08-22T02:09:37.215Z,19.88
2022-08-22T02:12:21.874Z,19.84
2022-08-22T02:14:55.575Z,19.80
2022-08-22T02:17:27.626Z,19.77
2022-08-22T02:19:58.583Z,19.74
2022-08-22T02:22:47.192Z,19.70
2022-08-22T02:25:21.270Z,19.68
2022-08-22T02:27:53.426Z,19.64
2022-08-22T02:30:22.713Z,19.61
2022-08-22T02:32:58.847Z,19.59
2022-08-22T02:35:31.230Z,19.57
2022-08-22T02:38:04.473Z,19.54
2022-08-22T02:40:36.513Z,19.53
2022-08-22T02:43:09.045Z,19.50
2022-08-22T02:45:39.997Z,19.48
2022-08-22T02:48:13.361Z,19.47
2022-08-22T02:50:46.842Z,19.46
2022-08-22T02:53:19.844Z,19.44
2022-08-22T02:55:53.932Z,19.42
2022-08-22T02:58:27.669Z,19.40
2022-08-22T03:01:16.399Z,19.39
2022-08-22T03:03:47.476Z,19.36
2022-08-22T03:06:32.697Z,19.35
2022-08-22T03:09:03.540Z,19.32
2022-08-22T03:11:34.974Z,19.30
2022-08-22T03:14:07.497Z,19.27
2022-08-22T03:16:38.222Z,19.24
2022-08-22T03:19:18.490Z,19.24
2022-08-22T03:21:51.182Z,19.21
2022-08-22T03:24:22.051Z,19.20
2022-08-22T03:26:53.588Z,19.18
2022-08-22T03:29:23.745Z,19.17
2022-08-22T03:32:09.201Z,19.16
2022-08-22T03:34:37.632Z,19.14
2022-08-22T03:37:11.835Z,19.12
2022-08-22T03:39:49.958Z,19.11
2022-08-22T03:42:30.921Z,19.09
2022-08-22T03:45:18.922Z,19.08
2022-08-22T03:47:54.079Z,19.06
2022-08-22T03:50:34.400Z,19.05
2022-08-22T03:53:19.474Z,19.04
2022-08-22T03:56:07.648Z,19.03
2022-08-22T03:58:46.646Z,19.00
2022-08-22T04:01:20.789Z,19.00
2022-08-22T04:04:12.931Z,18.98
2022-08-22T04:06:59.375Z,18.97
2022-08-22T04:09:43.655Z,18.96
2022-08-22T04:12:29.735Z,18.95
2022-08-22T04:15:12.700Z,18.94
2022-08-22T04:17:59.463Z,18.93
2022-08-22T04:20:56.629Z,18.93
2022-08-22T04:23:45.356Z,18.92
2022-08-22T04:26:17.161Z,18.90
2022-08-22T04:28:50.032Z,18.90
2022-08-22T04:31:23.391Z,18.90
2022-08-22T04:33:53.750Z,18.89
2022-08-22T04:36:26.519Z,18.89
2022-08-22T04:39:00.112Z,18.89
2022-08-22T04:41:36.356Z,18.89
2022-08-22T04:44:07.324Z,18.89
2022-08-22T04:46:39.602Z,18.89
2022-08-22T04:49:12.128Z,18.89
2022-08-22T04:51:43.696Z,18.90
2022-08-22T04:54:26.528Z,18.90
2022-08-22T04:57:03.006Z,18.90
2022-08-22T04:59:33.593Z,18.91
2022-08-22T05:02:06.403Z,18.93
2022-08-22T05:04:37.714Z,18.94
2022-08-22T05:07:10.227Z,18.95
2022-08-22T05:09:40.338Z,18.96
2022-08-22T05:12:12.159Z,18.97
2022-08-22T05:14:43.104Z,18.99
2022-08-22T05:17:30.268Z,19.01
2022-08-22T05:20:01.703Z,19.03
2022-08-22T05:22:34.343Z,19.05
2022-08-22T05:25:04.226Z,19.06
2022-08-22T05:27:34.588Z,19.08
2022-08-22T05:30:04.707Z,19.09
2022-08-22T05:32:35.312Z,19.12
2022-08-22T05:35:04.952Z,19.14
2022-08-22T05:37:39.514Z,19.16
2022-08-22T05:40:08.262Z,19.18
2022-08-22T05:42:37.600Z,19.20
2022-08-22T05:45:12.043Z,19.22
2022-08-22T05:47:42.281Z,19.25
2022-08-22T05:50:13.981Z,19.27
2022-08-22T05:52:47.698Z,19.29
2022-08-22T05:55:22.245Z,19.31
2022-08-22T05:57:51.651Z,19.33
2022-08-22T06:00:22.292Z,19.32
2022-08-22T06:02:59.573Z,19.32
2022-08-22T06:05:29.487Z,19.34
2022-08-22T06:08:02.333Z,19.33
2022-08-22T06:10:35.369Z,19.32
2022-08-22T06:13:04.993Z,19.34
2022-08-22T06:15:42.946Z,19.33
2022-08-22T06:18:13.146Z,19.35
2022-08-22T06:20:44.469Z,19.36
2022-08-22T06:23:16.264Z,19.38
2022-08-22T06:25:47.008Z,19.40
2022-08-22T06:28:18.068Z,19.45
2022-08-22T06:30:46.993Z,19.48
2022-08-22T06:33:17.712Z,19.53
2022-08-22T06:36:06.202Z,19.60
2022-08-22T06:38:52.993Z,19.67
2022-08-22T06:41:22.534Z,19.75
2022-08-22T06:43:52.768Z,19.81
2022-08-22T06:46:21.816Z,19.87
2022-08-22T06:48:50.722Z,19.94
2022-08-22T06:51:20.003Z,20.03
2022-08-22T06:53:53.739Z,20.12
2022-08-22T06:56:23.250Z,20.22
2022-08-22T06:58:53.855Z,20.35
2022-08-22T07:01:24.422Z,20.51
2022-08-22T07:03:53.972Z,20.71
2022-08-22T07:06:29.619Z,20.94
2022-08-22T07:08:59.617Z,21.24
2022-08-22T07:11:36.109Z,21.56
2022-08-22T07:14:05.982Z,21.86
2022-08-22T07:16:35.860Z,22.17
2022-08-22T07:19:03.961Z,22.47
2022-08-22T07:21:36.170Z,22.77
2022-08-22T07:24:06.605Z,23.04
2022-08-22T07:26:40.191Z,23.30
2022-08-22T07:29:12.950Z,23.55
2022-08-22T07:31:45.592Z,23.77
2022-08-22T07:34:24.511Z,24.00
2022-08-22T07:36:59.516Z,24.19
2022-08-22T07:39:34.447Z,24.38
2022-08-22T07:42:06.970Z,24.56
2022-08-22T07:44:38.999Z,24.71
2022-08-22T07:47:10.443Z,24.87
2022-08-22T07:49:49.680Z,25.03
2022-08-22T07:52:18.254Z,25.18
2022-08-22T07:54:50.646Z,25.31
2022-08-22T07:57:23.409Z,25.42
2022-08-22T07:59:54.141Z,25.52
2022-08-22T08:02:22.933Z,25.61
2022-08-22T08:04:52.221Z,25.67
2022-08-22T08:07:22.696Z,25.73
2022-08-22T08:09:57.628Z,25.77
2022-08-22T08:12:34.235Z,25.82
2022-08-22T08:15:04.221Z,25.87
2022-08-22T08:17:34.469Z,25.89
2022-08-22T08:20:05.066Z,25.92
2022-08-22T08:22:34.235Z,25.94
2022-08-22T08:25:04.252Z,25.96
2022-08-22T08:27:53.832Z,25.98
2022-08-22T08:30:28.015Z,26.03
2022-08-22T08:33:25.717Z,26.07
2022-08-22T08:36:02.746Z,26.13
2022-08-22T08:38:37.600Z,26.19
2022-08-22T08:41:38.081Z,26.25
2022-08-22T08:44:15.162Z,26.33
2022-08-22T08:47:07.482Z,26.42
2022-08-22T08:49:43.115Z,26.53
2022-08-22T08:52:28.848Z,26.61
2022-08-22T08:55:19.770Z,26.72
2022-08-22T08:57:58.548Z,26.84
2022-08-22T09:03:54.416Z,27.06
2022-08-22T09:06:42.487Z,27.17
2022-08-22T09:09:22.857Z,27.23
2022-08-22T09:12:08.595Z,27.30
2022-08-22T09:14:57.793Z,27.39
2022-08-22T09:17:32.469Z,27.47
2022-08-22T09:20:26.344Z,27.53
2022-08-22T09:23:13.304Z,27.61
2022-08-22T09:25:47.348Z,27.69
2022-08-22T09:28:36.946Z,27.74
2022-08-22T09:31:17.038Z,27.81
2022-08-22T09:34:05.401Z,27.88
2022-08-22T09:36:37.765Z,27.94
2022-08-22T09:39:13.287Z,28.04
2022-08-22T09:40:15.242Z,26.95
2022-08-22T09:41:54.206Z,28.12
2022-08-22T09:44:31.297Z,28.25
2022-08-22T09:47:07.674Z,28.34
2022-08-22T09:49:44.511Z,28.45
2022-08-22T09:52:34.148Z,28.54
2022-08-22T09:55:08.128Z,28.62
2022-08-22T09:57:39.213Z,28.71
2022-08-22T10:00:16.530Z,28.80
2022-08-22T10:02:56.298Z,28.86
2022-08-22T10:05:40.754Z,28.92
2022-08-22T10:08:19.603Z,28.97
2022-08-22T10:11:00.110Z,28.97
2022-08-22T10:13:37.682Z,28.95
2022-08-22T10:16:19.206Z,28.92
2022-08-22T10:18:52.710Z,28.88
2022-08-22T10:21:26.752Z,28.84
2022-08-22T10:23:57.233Z,28.78
2022-08-22T10:26:35.238Z,28.74
2022-08-22T10:29:09.371Z,28.67
2022-08-22T10:31:58.507Z,28.65
2022-08-22T10:34:37.314Z,28.63
2022-08-22T10:37:16.563Z,28.65
2022-08-22T10:39:48.288Z,28.69
2022-08-22T10:42:25.317Z,28.72
2022-08-22T10:45:15.488Z,28.80
2022-08-22T10:48:16.444Z,28.86
2022-08-22T10:50:48.618Z,28.94
2022-08-22T10:53:35.046Z,29.01
2022-08-22T10:56:11.291Z,29.07
2022-08-22T10:58:42.013Z,29.14
2022-08-22T11:01:37.530Z,29.19
2022-08-22T11:04:12.055Z,29.24
2022-08-22T11:06:45.372Z,29.28
2022-08-22T11:09:25.095Z,29.31
2022-08-22T11:12:00.883Z,29.33
2022-08-22T11:14:45.379Z,29.34
2022-08-22T11:17:31.029Z,29.35
2022-08-22T11:20:09.521Z,29.35
2022-08-22T11:22:46.347Z,29.36
2022-08-22T11:25:29.356Z,29.36
2022-08-22T11:28:17.556Z,29.36
2022-08-22T11:30:55.233Z,29.35
2022-08-22T11:33:33.866Z,29.36
2022-08-22T11:36:31.055Z,29.38
2022-08-22T11:39:18.285Z,29.39
2022-08-22T11:41:54.531Z,29.40
2022-08-22T11:44:27.642Z,29.42
2022-08-22T11:46:58.124Z,29.40
2022-08-22T11:49:35.206Z,29.40
2022-08-22T11:52:11.099Z,29.38
2022-08-22T11:54:56.926Z,29.35
2022-08-22T11:57:31.714Z,29.32
2022-08-22T12:00:20.680Z,29.28
2022-08-22T12:03:01.756Z,29.24
2022-08-22T12:05:33.654Z,29.19
2022-08-22T12:08:07.618Z,29.15
2022-08-22T12:10:38.215Z,29.12
2022-08-22T12:13:09.897Z,29.09
2022-08-22T12:15:43.020Z,29.07
2022-08-22T12:18:34.864Z,29.05
2022-08-22T12:21:23.583Z,29.05
2022-08-22T12:24:06.091Z,29.04
2022-08-22T12:26:42.307Z,29.05
2022-08-22T12:29:20.229Z,29.07
2022-08-22T12:32:17.239Z,29.09
2022-08-22T12:34:58.281Z,29.12
2022-08-22T12:37:29.836Z,29.15
2022-08-22T12:40:10.214Z,29.19
2022-08-22T12:42:50.244Z,29.20
2022-08-22T12:45:29.010Z,29.24
2022-08-22T12:48:02.241Z,29.27
2022-08-22T12:50:35.728Z,29.30
2022-08-22T12:53:19.971Z,29.32
2022-08-22T12:55:59.606Z,29.35
2022-08-22T12:58:35.539Z,29.38
2022-08-22T13:01:07.384Z,29.42
2022-08-22T13:03:37.791Z,29.43
2022-08-22T13:06:07.910Z,29.44
2022-08-22T13:08:46.898Z,29.46
2022-08-22T13:11:22.627Z,29.46
2022-08-22T13:13:56.561Z,29.46
2022-08-22T13:16:35.044Z,29.47
2022-08-22T13:19:13.507Z,29.47
2022-08-22T13:21:46.060Z,29.47
2022-08-22T13:24:22.796Z,29.49
2022-08-22T13:27:08.151Z,29.50
2022-08-22T13:29:42.704Z,29.51
2022-08-22T13:32:29.540Z,29.52
2022-08-22T13:34:58.911Z,29.51
2022-08-22T13:37:31.448Z,29.51
2022-08-22T13:40:02.132Z,29.51
2022-08-22T13:42:32.314Z,29.51
2022-08-22T13:45:03.026Z,29.52
2022-08-22T13:47:39.427Z,29.53
2022-08-22T13:50:11.282Z,29.52
2022-08-22T13:52:44.074Z,29.53
2022-08-22T13:55:29.399Z,29.52
2022-08-22T13:58:01.447Z,29.51
2022-08-22T14:00:48.651Z,29.51
2022-08-22T14:03:28.328Z,29.50
2022-08-22T14:06:32.881Z,29.51
2022-08-22T14:08:48.980Z,29.53
2022-08-22T14:11:22.813Z,29.56
2022-08-22T14:13:56.056Z,29.60
2022-08-22T14:16:28.577Z,29.64
2022-08-22T14:19:00.257Z,29.68
2022-08-22T14:21:40.215Z,29.74
2022-08-22T14:24:14.320Z,29.77
2022-08-22T14:26:50.426Z,29.81
2022-08-22T14:29:19.466Z,29.87
2022-08-22T14:31:56.350Z,29.90
2022-08-22T14:34:26.907Z,29.95
2022-08-22T14:36:57.656Z,30.01
2022-08-22T14:39:29.801Z,30.07
2022-08-22T14:42:04.215Z,30.11
2022-08-22T14:44:34.478Z,30.16
2022-08-22T14:47:08.488Z,30.20
2022-08-22T14:49:55.837Z,30.21
2022-08-22T14:52:29.709Z,30.24
2022-08-22T14:55:08.165Z,30.27
2022-08-22T14:57:38.214Z,30.28
2022-08-22T15:00:10.728Z,30.30
2022-08-22T15:02:39.778Z,30.32
2022-08-22T15:05:18.177Z,30.34
2022-08-22T15:07:54.179Z,30.36
2022-08-22T15:10:24.174Z,30.38
2022-08-22T15:12:54.055Z,30.41
2022-08-22T15:15:32.588Z,30.43
2022-08-22T15:18:16.975Z,30.45
2022-08-22T15:20:51.010Z,30.47
2022-08-22T15:23:22.839Z,30.50
2022-08-22T15:25:58.387Z,30.52
2022-08-22T15:28:27.075Z,30.54
2022-08-22T15:31:04.001Z,30.55
2022-08-22T15:33:34.752Z,30.56
2022-08-22T15:36:15.909Z,30.56
2022-08-22T15:38:46.909Z,30.55
2022-08-22T15:41:40.152Z,30.52
2022-08-22T15:44:14.928Z,30.50
2022-08-22T15:47:01.512Z,30.45
2022-08-22T15:49:31.891Z,30.41
2022-08-22T15:52:20.848Z,30.37
2022-08-22T15:55:22.160Z,30.31
2022-08-22T15:58:02.943Z,30.26
2022-08-22T16:00:33.694Z,30.21
2022-08-22T16:03:04.403Z,30.16
2022-08-22T16:05:41.741Z,30.11
2022-08-22T16:08:14.487Z,30.04
2022-08-22T16:10:44.367Z,29.98
2022-08-22T16:13:15.449Z,29.93
2022-08-22T16:15:56.938Z,29.88
2022-08-22T16:18:43.774Z,29.82
2022-08-22T16:21:13.315Z,29.75
2022-08-22T16:24:00.830Z,29.68
2022-08-22T16:26:40.656Z,29.62
2022-08-22T16:29:26.280Z,29.55
2022-08-22T16:31:58.663Z,29.49
2022-08-22T16:34:28.425Z,29.45
2022-08-22T16:37:11.168Z,29.38
2022-08-22T16:39:40.993Z,29.33
2022-08-22T16:42:24.951Z,29.28
2022-08-22T16:44:56.389Z,29.23
2022-08-22T16:47:40.816Z,29.18
2022-08-22T16:50:11.659Z,29.13
2022-08-22T16:52:53.166Z,29.09
2022-08-22T16:55:40.074Z,29.05
2022-08-22T16:58:15.599Z,28.99
2022-08-22T17:00:45.493Z,28.95
2022-08-22T17:03:21.244Z,28.91
2022-08-22T17:05:54.976Z,28.88
2022-08-22T17:08:37.443Z,28.85
2022-08-22T17:11:24.302Z,28.80
2022-08-22T17:14:04.586Z,28.75
2022-08-22T17:16:48.741Z,28.71
2022-08-22T17:19:26.314Z,28.66
2022-08-22T17:21:56.684Z,28.62
2022-08-22T17:24:33.658Z,28.58
2022-08-22T17:27:07.947Z,28.54
2022-08-22T17:29:44.076Z,28.50
2022-08-22T17:32:18.019Z,28.45
2022-08-22T17:34:51.752Z,28.41
2022-08-22T17:37:23.226Z,28.36
2022-08-22T17:39:56.715Z,28.31
2022-08-22T17:42:38.187Z,28.26
2022-08-22T17:45:16.240Z,28.20
2022-08-22T17:47:50.807Z,28.14
2022-08-22T17:50:22.348Z,28.08
2022-08-22T17:52:53.451Z,28.03
2022-08-22T17:55:25.251Z,27.97
2022-08-22T17:57:55.574Z,27.93
2022-08-22T18:00:28.495Z,27.85
2022-08-22T18:03:00.078Z,27.80
2022-08-22T18:05:30.401Z,27.75
2022-08-22T18:08:05.920Z,27.70
2022-08-22T18:10:39.643Z,27.63
2022-08-22T18:13:10.621Z,27.57
2022-08-22T18:15:44.450Z,27.53
2022-08-22T18:18:16.499Z,27.47
2022-08-22T18:20:47.208Z,27.42
2022-08-22T18:23:33.195Z,27.37
2022-08-22T18:26:07.853Z,27.33
2022-08-22T18:28:42.069Z,27.28
2022-08-22T18:31:22.497Z,27.25
2022-08-22T18:33:53.372Z,27.22
2022-08-22T18:36:23.945Z,27.18
2022-08-22T18:38:55.994Z,27.14
2022-08-22T18:41:27.666Z,27.10
2022-08-22T18:43:56.105Z,27.07
2022-08-22T18:46:31.873Z,27.03
2022-08-22T18:49:15.037Z,27.00
2022-08-22T18:51:44.832Z,26.96
2022-08-22T18:54:36.795Z,26.93
2022-08-22T18:57:08.833Z,26.86
2022-08-22T18:59:42.439Z,26.84
2022-08-22T19:02:28.884Z,26.78
2022-08-22T19:05:05.741Z,26.74
2022-08-22T19:07:51.079Z,26.70
2022-08-22T19:10:34.417Z,26.66
2022-08-22T19:13:18.083Z,26.61
2022-08-22T19:15:52.420Z,26.55
2022-08-22T19:18:28.286Z,26.51
2022-08-22T19:21:32.740Z,26.46
2022-08-22T19:24:02.987Z,26.42
2022-08-22T19:26:33.599Z,26.38
2022-08-22T19:29:06.769Z,26.34
2022-08-22T19:31:50.551Z,26.33
2022-08-22T19:34:33.617Z,26.32
2022-08-22T19:37:32.162Z,26.30
2022-08-22T19:40:05.720Z,26.29
2022-08-22T19:42:36.107Z,26.27
2022-08-22T19:45:07.546Z,26.27
2022-08-22T19:47:37.664Z,26.25
2022-08-22T19:50:13.340Z,26.24
2022-08-22T19:52:48.001Z,26.22
2022-08-22T19:55:22.203Z,26.21
2022-08-22T19:57:56.993Z,26.20
2022-08-22T20:00:41.203Z,26.19
2022-08-22T20:03:12.753Z,26.17
2022-08-22T20:05:56.684Z,26.15
2022-08-22T20:08:32.653Z,26.13
2022-08-22T20:11:14.793Z,26.11
2022-08-22T20:13:42.971Z,26.09
2022-08-22T20:16:16.223Z,26.07
2022-08-22T20:19:05.943Z,26.07
2022-08-22T20:21:39.273Z,26.04
2022-08-22T20:24:09.377Z,26.02
2022-08-22T20:26:52.185Z,26.00
2022-08-22T20:29:29.892Z,25.99
2022-08-22T20:31:59.116Z,25.98
2022-08-22T20:34:28.582Z,25.96
2022-08-22T20:37:16.068Z,25.94
2022-08-22T20:39:58.731Z,25.91
2022-08-22T20:42:30.028Z,25.90
2022-08-22T20:44:59.901Z,25.87
2022-08-22T20:47:32.284Z,25.85
2022-08-22T20:50:12.069Z,25.84
2022-08-22T20:52:43.848Z,25.81
2022-08-22T20:55:24.309Z,25.79
2022-08-22T20:57:58.742Z,25.76
2022-08-22T21:00:29.551Z,25.75
2022-08-22T21:02:59.073Z,25.72
2022-08-22T21:05:33.154Z,25.71
2022-08-22T21:08:06.515Z,25.69
2022-08-22T21:10:52.849Z,25.67
2022-08-22T21:13:23.560Z,25.64
2022-08-22T21:15:53.128Z,25.63
2022-08-22T21:18:32.320Z,25.61
2022-08-22T21:21:08.058Z,25.58
2022-08-22T21:23:46.023Z,25.56
2022-08-22T21:26:21.049Z,25.54
2022-08-22T21:28:57.299Z,25.50
2022-08-22T21:31:26.569Z,25.48
2022-08-22T21:33:56.219Z,25.46
2022-08-22T21:36:25.493Z,25.44
2022-08-22T21:38:56.213Z,25.42
2022-08-22T21:41:28.865Z,25.39
2022-08-22T21:44:17.950Z,25.37
2022-08-22T21:46:46.156Z,25.33
2022-08-22T21:49:21.941Z,25.32
2022-08-22T21:51:50.510Z,25.29
2022-08-22T21:54:23.126Z,25.26
2022-08-22T21:56:52.533Z,25.23
2022-08-22T21:59:26.242Z,25.21
2022-08-22T22:02:28.149Z,25.18
2022-08-22T22:04:57.804Z,25.14
2022-08-22T22:07:26.713Z,25.11
2022-08-22T22:09:55.294Z,25.08
2022-08-22T22:12:26.598Z,25.05
2022-08-22T22:14:56.476Z,25.01
2022-08-22T22:17:24.678Z,24.99
2022-08-22T22:19:55.398Z,24.96
2022-08-22T22:22:24.361Z,24.92
2022-08-22T22:24:53.845Z,24.88
2022-08-22T22:27:22.065Z,24.84
2022-08-22T22:29:50.365Z,24.80
2022-08-22T22:32:22.891Z,24.77
2022-08-22T22:34:50.969Z,24.74
2022-08-22T22:37:19.183Z,24.70
2022-08-22T22:39:47.573Z,24.67
2022-08-22T22:42:15.826Z,24.63
2022-08-22T22:44:43.930Z,24.59
2022-08-22T22:47:15.818Z,24.55
2022-08-22T22:49:46.190Z,24.51
2022-08-22T22:52:14.635Z,24.47
2022-08-22T22:54:42.718Z,24.44
2022-08-22T22:57:12.453Z,24.40
2022-08-22T22:59:43.563Z,24.37
2022-08-22T23:02:14.387Z,24.33
2022-08-22T23:04:44.151Z,24.30
2022-08-22T23:07:15.349Z,24.26
2022-08-22T23:09:44.847Z,24.21
2022-08-22T23:12:14.318Z,24.18
2022-08-22T23:14:42.232Z,24.13
2022-08-22T23:17:10.556Z,24.08
2022-08-22T23:19:39.596Z,24.05
2022-08-22T23:22:08.039Z,24.01
2022-08-22T23:24:38.641Z,23.96
2022-08-22T23:27:07.454Z,23.92
2022-08-22T23:29:37.328Z,23.87
2022-08-22T23:32:06.170Z,23.84
2022-08-22T23:34:35.526Z,23.80
2022-08-22T23:37:05.770Z,23.76
2022-08-22T23:39:35.783Z,23.72
2022-08-22T23:42:05.657Z,23.68
2022-08-22T23:44:37.460Z,23.64
2022-08-22T23:47:09.253Z,23.59
2022-08-22T23:49:37.941Z,23.55
2022-08-22T23:52:06.625Z,23.50
2022-08-22T23:54:35.302Z,23.47
2022-08-22T23:57:11.847Z,23.43
2022-08-22T23:59:48.012Z,23.37
